Time;durP1;ratioP1;P1;durP2;ratioP2;P2;SDS_P1;SDS_P2;PMS_P1;PMS_P2;Temp;Humidity;BMP_temperature;BMP_pressure;BME280_temperature;BME280_humidity;BME280_pressure;Samples;Min_cycle;Max_cycle;Signal;HPM_P1;HPM_P2
2022/05/22 00:01:53;;;;;;;0.72;0.72;;;;;;;;;;1795731;78;26780;-54
2022/05/22 00:04:21;;;;;;;0.80;0.80;;;;;;;;;;1799631;78;26322;-52
2022/05/22 00:06:49;;;;;;;0.75;0.75;;;;;;;;;;1795998;78;25752;-59
2022/05/22 00:09:16;;;;;;;0.70;0.70;;;;;;;;;;1797167;78;26270;-50
2022/05/22 00:11:44;;;;;;;0.90;0.70;;;;;;;;;;1798391;78;27158;-47
2022/05/22 00:14:16;;;;;;;0.60;0.60;;;;;;;;;;1799486;78;26308;-55
2022/05/22 00:16:41;;;;;;;0.70;0.70;;;;;;;;;;1795676;79;26330;-52
2022/05/22 00:19:09;;;;;;;0.75;0.75;;;;;;;;;;1797073;78;26535;-61
2022/05/22 00:21:38;;;;;;;0.70;0.70;;;;;;;;;;1796993;79;26518;-50
2022/05/22 00:24:06;;;;;;;0.75;0.75;;;;;;;;;;1799100;78;25367;-51
2022/05/22 00:26:33;;;;;;;0.75;0.75;;;;;;;;;;1796567;78;26017;-55
2022/05/22 00:29:01;;;;;;;0.70;0.70;;;;;;;;;;1792792;79;26638;-51
2022/05/22 00:31:28;;;;;;;0.80;0.80;;;;;;;;;;1797257;78;26305;-55
2022/05/22 00:33:55;;;;;;;0.75;0.75;;;;;;;;;;1798183;78;26398;-54
2022/05/22 00:36:23;;;;;;;0.70;0.70;;;;;;;;;;1797254;78;26321;-51
2022/05/22 00:38:50;;;;;;;0.85;0.85;;;;;;;;;;1797440;78;26285;-59
2022/05/22 00:41:18;;;;;;;0.70;0.70;;;;;;;;;;1797672;78;26708;-47
2022/05/22 00:43:47;;;;;;;0.80;0.80;;;;;;;;;;1799290;79;26611;-48
2022/05/22 00:46:16;;;;;;;0.70;0.70;;;;;;;;;;1795563;78;26313;-59
2022/05/22 00:48:44;;;;;;;0.80;0.80;;;;;;;;;;1796121;79;26318;-52
2022/05/22 00:51:13;;;;;;;0.60;0.60;;;;;;;;;;1798104;78;26705;-50
2022/05/22 00:53:42;;;;;;;0.98;0.80;;;;;;;;;;1727879;79;26793;-50
2022/05/22 00:56:11;;;;;;;0.72;0.72;;;;;;;;;;1797517;78;26746;-50
2022/05/22 00:58:39;;;;;;;0.72;0.72;;;;;;;;;;1802345;79;26339;-49
2022/05/22 01:01:06;;;;;;;0.80;0.80;;;;;;;;;;1802180;78;26421;-56
2022/05/22 01:03:36;;;;;;;0.90;0.90;;;;;;;;;;1800938;79;26313;-59
2022/05/22 01:06:07;;;;;;;0.75;0.70;;;;;;;;;;1798627;78;26725;-59
2022/05/22 01:08:35;;;;;;;0.70;0.70;;;;;;;;;;1797121;78;26301;-55
2022/05/22 01:11:07;;;;;;;0.80;0.80;;;;;;;;;;1797098;78;26318;-59
2022/05/22 01:13:35;;;;;;;0.70;0.70;;;;;;;;;;1794831;78;27454;-57
2022/05/22 01:16:04;;;;;;;0.80;0.80;;;;;;;;;;1795641;78;26739;-52
2022/05/22 01:18:33;;;;;;;0.70;0.70;;;;;;;;;;1793827;78;26360;-52
2022/05/22 01:21:00;;;;;;;0.70;0.70;;;;;;;;;;1795314;78;27077;-54
2022/05/22 01:23:28;;;;;;;0.80;0.80;;;;;;;;;;1793012;79;26954;-51
2022/05/22 01:25:55;;;;;;;0.70;0.70;;;;;;;;;;1791736;78;26658;-53
2022/05/22 01:28:22;;;;;;;0.70;0.70;;;;;;;;;;1792235;79;26824;-51
2022/05/22 01:30:49;;;;;;;0.75;0.75;;;;;;;;;;1792811;78;26660;-55
2022/05/22 01:33:17;;;;;;;0.65;0.65;;;;;;;;;;1791653;78;26364;-52
2022/05/22 01:35:44;;;;;;;0.60;0.60;;;;;;;;;;1793493;78;26263;-49
2022/05/22 01:38:11;;;;;;;0.85;0.55;;;;;;;;;;1793812;78;26356;-53
2022/05/22 01:40:38;;;;;;;0.60;0.60;;;;;;;;;;1791707;78;26289;-54
2022/05/22 01:43:06;;;;;;;0.62;0.60;;;;;;;;;;1793476;78;26750;-54
2022/05/22 01:45:33;;;;;;;0.70;0.70;;;;;;;;;;1792622;78;26270;-51
2022/05/22 01:48:01;;;;;;;0.57;0.57;;;;;;;;;;1792997;78;26632;-53
2022/05/22 01:50:29;;;;;;;0.70;0.70;;;;;;;;;;1788185;78;26368;-59
2022/05/22 01:52:57;;;;;;;0.70;0.70;;;;;;;;;;1793935;78;26267;-55
2022/05/22 01:55:25;;;;;;;0.78;0.78;;;;;;;;;;1786954;78;26384;-54
2022/05/22 01:57:52;;;;;;;0.60;0.60;;;;;;;;;;1792435;79;26400;-52
2022/05/22 02:00:21;;;;;;;0.80;0.80;;;;;;;;;;1796259;78;26895;-54
2022/05/22 02:02:48;;;;;;;0.60;0.60;;;;;;;;;;1789213;78;26399;-53
2022/05/22 02:05:17;;;;;;;0.70;0.70;;;;;;;;;;1793806;78;26282;-52
2022/05/22 02:10:31;;;;;;;0.80;0.80;;;;;;;;;;1793235;80;26350;-56
2022/05/22 02:12:59;;;;;;;0.60;0.60;;;;;;;;;;1789851;78;26639;-52
2022/05/22 02:15:27;;;;;;;0.60;0.60;;;;;;;;;;1794074;80;26336;-60
2022/05/22 02:17:55;;;;;;;0.60;0.60;;;;;;;;;;1793177;78;27166;-52
2022/05/22 02:20:23;;;;;;;0.60;0.60;;;;;;;;;;1793180;78;26204;-51
2022/05/22 02:22:52;;;;;;;0.68;0.68;;;;;;;;;;1797114;79;26305;-55
2022/05/22 02:25:21;;;;;;;0.80;0.80;;;;;;;;;;1797715;79;26325;-48
2022/05/22 02:27:48;;;;;;;0.60;0.60;;;;;;;;;;1799266;78;26277;-52
2022/05/22 02:30:17;;;;;;;0.78;0.72;;;;;;;;;;1799861;78;26285;-55
2022/05/22 02:32:44;;;;;;;0.70;0.70;;;;;;;;;;1799895;78;26325;-53
2022/05/22 02:35:13;;;;;;;1.17;0.78;;;;;;;;;;1799271;78;26333;-55
2022/05/22 02:37:44;;;;;;;0.60;0.60;;;;;;;;;;1795849;78;26343;-53
2022/05/22 02:40:12;;;;;;;0.70;0.70;;;;;;;;;;1794445;78;26359;-56
2022/05/22 02:42:41;;;;;;;0.70;0.70;;;;;;;;;;1797844;78;26301;-51
2022/05/22 02:45:09;;;;;;;1.75;0.70;;;;;;;;;;1798503;78;26887;-55
2022/05/22 02:47:36;;;;;;;0.68;0.68;;;;;;;;;;1796021;78;26809;-58
2022/05/22 02:50:05;;;;;;;0.60;0.60;;;;;;;;;;1798617;78;26646;-59
2022/05/22 02:52:32;;;;;;;0.60;0.60;;;;;;;;;;1778099;79;26260;-48
2022/05/22 02:55:00;;;;;;;0.72;0.72;;;;;;;;;;1800822;79;26294;-51
2022/05/22 02:57:28;;;;;;;0.72;0.72;;;;;;;;;;1793783;78;26852;-53
2022/05/22 02:59:56;;;;;;;1.42;0.70;;;;;;;;;;1803702;78;26888;-53
2022/05/22 03:02:23;;;;;;;0.70;0.70;;;;;;;;;;1797698;78;26305;-52
2022/05/22 03:04:50;;;;;;;0.70;0.70;;;;;;;;;;1799908;78;26330;-53
2022/05/22 03:07:18;;;;;;;0.70;0.70;;;;;;;;;;1796658;78;26281;-52
2022/05/22 03:09:47;;;;;;;0.65;0.65;;;;;;;;;;1798061;78;27476;-55
2022/05/22 03:12:19;;;;;;;1.37;0.70;;;;;;;;;;1790776;78;26327;-61
2022/05/22 03:14:48;;;;;;;0.65;0.65;;;;;;;;;;1788886;78;26294;-57
2022/05/22 03:17:15;;;;;;;1.45;0.60;;;;;;;;;;1784416;78;26285;-50
2022/05/22 03:19:42;;;;;;;0.70;0.70;;;;;;;;;;1799790;78;26368;-54
2022/05/22 03:22:10;;;;;;;0.88;0.60;;;;;;;;;;1800218;79;26459;-49
2022/05/22 03:24:38;;;;;;;0.78;0.78;;;;;;;;;;1800188;79;26289;-50
2022/05/22 03:27:07;;;;;;;0.70;0.70;;;;;;;;;;1792229;79;26822;-55
2022/05/22 03:29:34;;;;;;;0.70;0.70;;;;;;;;;;1791831;78;26312;-50
2022/05/22 03:32:02;;;;;;;0.70;0.70;;;;;;;;;;1790718;78;26788;-50
2022/05/22 03:34:29;;;;;;;0.60;0.60;;;;;;;;;;1795133;78;26359;-54
2022/05/22 03:36:57;;;;;;;0.72;0.72;;;;;;;;;;1800516;79;26383;-55
2022/05/22 03:39:24;;;;;;;0.70;0.70;;;;;;;;;;1794220;78;26321;-54
2022/05/22 03:41:52;;;;;;;0.78;0.78;;;;;;;;;;1800054;78;26332;-52
2022/05/22 03:44:19;;;;;;;0.70;0.70;;;;;;;;;;1799633;78;26421;-49
2022/05/22 03:46:47;;;;;;;0.60;0.60;;;;;;;;;;1800386;79;26860;-57
2022/05/22 03:49:14;;;;;;;0.80;0.80;;;;;;;;;;1799295;78;26290;-48
2022/05/22 03:51:42;;;;;;;0.70;0.70;;;;;;;;;;1798759;78;26524;-50
2022/05/22 03:54:10;;;;;;;0.70;0.70;;;;;;;;;;1800165;78;26903;-52
2022/05/22 03:56:42;;;;;;;3.50;0.85;;;;;;;;;;1796265;79;26347;-56
2022/05/22 03:59:09;;;;;;;1.70;0.72;;;;;;;;;;1803236;78;26293;-53
2022/05/22 04:01:37;;;;;;;0.62;0.62;;;;;;;;;;1799896;79;26321;-53
2022/05/22 04:04:05;;;;;;;0.60;0.60;;;;;;;;;;1796685;78;26316;-49
2022/05/22 04:06:32;;;;;;;0.68;0.68;;;;;;;;;;1797827;78;26387;-52
2022/05/22 04:08:59;;;;;;;0.60;0.60;;;;;;;;;;1795271;78;26315;-56
2022/05/22 04:11:27;;;;;;;0.60;0.60;;;;;;;;;;1800363;79;26363;-54
2022/05/22 04:13:54;;;;;;;0.68;0.68;;;;;;;;;;1799749;78;26234;-51
2022/05/22 04:16:22;;;;;;;0.60;0.60;;;;;;;;;;1801009;79;26781;-56
2022/05/22 04:18:49;;;;;;;0.70;0.70;;;;;;;;;;1798872;78;26836;-53
2022/05/22 04:21:16;;;;;;;0.70;0.70;;;;;;;;;;1788416;78;26371;-53
2022/05/22 04:26:33;;;;;;;0.60;0.60;;;;;;;;;;1787961;78;26448;-53
2022/05/22 04:29:01;;;;;;;2.75;0.80;;;;;;;;;;1789243;78;26301;-50
2022/05/22 04:31:28;;;;;;;0.70;0.70;;;;;;;;;;1807369;78;26300;-47
2022/05/22 04:33:56;;;;;;;0.70;0.70;;;;;;;;;;1803543;78;26293;-50
2022/05/22 04:36:23;;;;;;;0.75;0.75;;;;;;;;;;1774222;78;26281;-50
2022/05/22 04:38:50;;;;;;;0.60;0.60;;;;;;;;;;1796083;78;26281;-52
2022/05/22 04:41:18;;;;;;;0.88;0.60;;;;;;;;;;1797004;78;26297;-56
2022/05/22 04:43:46;;;;;;;0.70;0.70;;;;;;;;;;1794089;78;26808;-51
2022/05/22 04:46:13;;;;;;;0.72;0.72;;;;;;;;;;1796376;78;26293;-52
2022/05/22 04:48:40;;;;;;;0.70;0.68;;;;;;;;;;1793413;78;26246;-56
2022/05/22 04:51:09;;;;;;;0.70;0.70;;;;;;;;;;1798828;78;26278;-52
2022/05/22 04:53:36;;;;;;;0.70;0.70;;;;;;;;;;1800289;79;26746;-54
2022/05/22 04:56:05;;;;;;;0.78;0.78;;;;;;;;;;1797541;78;26214;-50
2022/05/22 04:58:32;;;;;;;0.65;0.65;;;;;;;;;;1804320;78;26344;-48
2022/05/22 05:01:01;;;;;;;0.68;0.68;;;;;;;;;;1800464;78;26801;-58
2022/05/22 05:03:28;;;;;;;0.72;0.72;;;;;;;;;;1789503;79;26301;-51
2022/05/22 05:05:57;;;;;;;0.80;0.80;;;;;;;;;;1797587;78;26616;-54
2022/05/22 05:08:25;;;;;;;0.70;0.70;;;;;;;;;;1800624;78;26717;-54
2022/05/22 05:10:53;;;;;;;0.70;0.70;;;;;;;;;;1799156;79;26810;-57
2022/05/22 05:13:21;;;;;;;0.68;0.68;;;;;;;;;;1796642;78;26296;-49
2022/05/22 05:15:58;;;;;;;0.70;0.70;;;;;;;;;;1797687;78;26286;-55
2022/05/22 05:18:25;;;;;;;0.70;0.70;;;;;;;;;;1797142;78;26305;-53
2022/05/22 05:20:54;;;;;;;0.60;0.60;;;;;;;;;;1798964;78;26505;-54
2022/05/22 05:23:21;;;;;;;0.60;0.60;;;;;;;;;;1799551;79;26329;-56
2022/05/22 05:25:48;;;;;;;1.55;0.70;;;;;;;;;;1802695;78;26281;-50
2022/05/22 05:28:16;;;;;;;0.70;0.70;;;;;;;;;;1801138;79;26761;-57
2022/05/22 05:30:43;;;;;;;2.92;0.70;;;;;;;;;;1802066;78;26800;-53
2022/05/22 05:33:10;;;;;;;0.65;0.65;;;;;;;;;;1803332;78;26836;-52
2022/05/22 05:35:37;;;;;;;0.60;0.60;;;;;;;;;;1798995;78;26301;-52
2022/05/22 05:38:05;;;;;;;0.80;0.80;;;;;;;;;;1801961;79;27552;-56
2022/05/22 05:40:33;;;;;;;0.70;0.70;;;;;;;;;;1797139;78;26333;-54
2022/05/22 05:43:00;;;;;;;0.70;0.70;;;;;;;;;;1798387;78;26301;-59
2022/05/22 05:45:27;;;;;;;0.60;0.60;;;;;;;;;;1799717;79;26304;-54
2022/05/22 05:47:55;;;;;;;0.82;0.82;;;;;;;;;;1798903;78;26285;-57
2022/05/22 05:50:22;;;;;;;0.60;0.60;;;;;;;;;;1801970;79;26406;-58
2022/05/22 05:52:50;;;;;;;0.70;0.70;;;;;;;;;;1802319;78;26289;-53
2022/05/22 05:55:17;;;;;;;0.60;0.60;;;;;;;;;;1801632;78;26333;-51
2022/05/22 05:57:45;;;;;;;0.70;0.70;;;;;;;;;;1799934;78;26362;-53
2022/05/22 06:00:13;;;;;;;0.78;0.78;;;;;;;;;;1799768;78;27329;-58
2022/05/22 06:02:41;;;;;;;0.70;0.70;;;;;;;;;;1799553;78;26332;-58
2022/05/22 06:05:09;;;;;;;0.80;0.80;;;;;;;;;;1802653;78;26250;-52
2022/05/22 06:07:36;;;;;;;1.95;0.90;;;;;;;;;;1798699;78;26855;-57
2022/05/22 06:10:05;;;;;;;0.70;0.70;;;;;;;;;;1807641;78;26305;-58
2022/05/22 06:12:33;;;;;;;0.65;0.65;;;;;;;;;;1800042;78;26340;-53
2022/05/22 06:15:00;;;;;;;0.70;0.70;;;;;;;;;;1802085;78;26579;-57
2022/05/22 06:17:32;;;;;;;1.05;0.78;;;;;;;;;;1803256;78;26277;-48
2022/05/22 06:20:00;;;;;;;0.80;0.80;;;;;;;;;;1799654;78;26894;-59
2022/05/22 06:22:28;;;;;;;0.90;0.90;;;;;;;;;;1799524;78;26411;-59
2022/05/22 06:24:57;;;;;;;4.22;0.80;;;;;;;;;;1799333;78;26340;-57
2022/05/22 06:27:25;;;;;;;0.98;0.80;;;;;;;;;;1797961;78;26363;-56
2022/05/22 06:29:53;;;;;;;1.17;0.80;;;;;;;;;;1796000;78;26310;-51
2022/05/22 06:32:21;;;;;;;0.80;0.80;;;;;;;;;;1798307;78;26355;-58
2022/05/22 06:34:48;;;;;;;0.72;0.72;;;;;;;;;;1797383;78;26333;-58
2022/05/22 06:37:17;;;;;;;2.15;0.80;;;;;;;;;;1797195;78;26630;-56
2022/05/22 06:39:52;;;;;;;1.75;0.80;;;;;;;;;;1800268;79;26402;-52
2022/05/22 06:42:23;;;;;;;0.90;0.90;;;;;;;;;;1799756;78;26333;-52
2022/05/22 06:44:52;;;;;;;1.37;1.07;;;;;;;;;;1798365;78;26576;-55
2022/05/22 06:47:20;;;;;;;1.50;1.00;;;;;;;;;;1782307;79;26363;-58
2022/05/22 06:49:47;;;;;;;0.98;0.98;;;;;;;;;;1795556;78;26301;-55
2022/05/22 06:52:15;;;;;;;4.22;1.10;;;;;;;;;;1798296;78;26262;-54
2022/05/22 06:54:43;;;;;;;1.47;1.00;;;;;;;;;;1799635;78;26293;-57
2022/05/22 06:57:10;;;;;;;1.10;1.10;;;;;;;;;;1799765;78;26880;-55
2022/05/22 06:59:37;;;;;;;2.17;1.10;;;;;;;;;;1798017;78;26258;-54
2022/05/22 07:02:05;;;;;;;2.95;1.20;;;;;;;;;;1799816;78;26293;-55
2022/05/22 07:04:32;;;;;;;1.47;1.12;;;;;;;;;;1798722;78;25806;-55
2022/05/22 07:07:00;;;;;;;1.07;1.07;;;;;;;;;;1799948;78;26768;-54
2022/05/22 07:09:27;;;;;;;1.65;1.20;;;;;;;;;;1798725;78;26402;-57
2022/05/22 07:11:54;;;;;;;1.22;1.20;;;;;;;;;;1798069;78;26293;-56
2022/05/22 07:14:23;;;;;;;1.77;1.30;;;;;;;;;;1790016;78;26325;-50
2022/05/22 07:16:51;;;;;;;1.42;1.30;;;;;;;;;;1792199;78;26878;-56
2022/05/22 07:19:19;;;;;;;1.50;1.40;;;;;;;;;;1795286;78;26741;-54
2022/05/22 07:21:46;;;;;;;1.47;1.37;;;;;;;;;;1798532;78;26847;-52
2022/05/22 07:24:14;;;;;;;1.42;1.30;;;;;;;;;;1795261;78;26307;-58
2022/05/22 07:26:41;;;;;;;1.77;1.20;;;;;;;;;;1797698;78;26372;-56
2022/05/22 07:29:09;;;;;;;1.20;1.20;;;;;;;;;;1796867;78;27306;-53
2022/05/22 07:31:37;;;;;;;1.52;1.27;;;;;;;;;;1800330;78;26203;-58
2022/05/22 07:34:05;;;;;;;2.55;1.30;;;;;;;;;;1799475;78;26332;-53
2022/05/22 07:36:32;;;;;;;1.27;1.17;;;;;;;;;;1796777;78;26371;-56
2022/05/22 07:39:00;;;;;;;1.50;1.40;;;;;;;;;;1796873;78;27567;-57
2022/05/22 07:41:27;;;;;;;2.95;1.30;;;;;;;;;;1797136;78;26297;-56
2022/05/22 07:43:54;;;;;;;1.10;1.10;;;;;;;;;;1807501;78;26309;-54
2022/05/22 07:46:22;;;;;;;1.40;1.20;;;;;;;;;;1798749;78;26360;-55
2022/05/22 07:48:49;;;;;;;1.40;1.30;;;;;;;;;;1798873;78;26250;-54
2022/05/22 07:51:17;;;;;;;1.35;1.15;;;;;;;;;;1799249;78;26341;-57
2022/05/22 07:53:44;;;;;;;1.30;1.30;;;;;;;;;;1795406;78;26332;-55
2022/05/22 07:56:13;;;;;;;1.57;1.27;;;;;;;;;;1799623;78;26339;-54
2022/05/22 07:58:41;;;;;;;1.22;1.22;;;;;;;;;;1801384;78;26340;-55
2022/05/22 08:01:08;;;;;;;1.50;1.30;;;;;;;;;;1797424;78;26309;-50
2022/05/22 08:03:36;;;;;;;1.52;1.30;;;;;;;;;;1790899;78;27387;-58
2022/05/22 08:06:03;;;;;;;2.20;1.30;;;;;;;;;;1799216;78;26277;-52
2022/05/22 08:08:31;;;;;;;1.55;1.30;;;;;;;;;;1798117;78;26319;-52
2022/05/22 08:10:59;;;;;;;1.10;1.10;;;;;;;;;;1788145;78;26322;-54
2022/05/22 08:13:26;;;;;;;2.05;1.30;;;;;;;;;;1800601;78;26351;-47
2022/05/22 08:15:54;;;;;;;1.15;1.15;;;;;;;;;;1797827;78;26456;-57
2022/05/22 08:18:21;;;;;;;3.65;1.27;;;;;;;;;;1789833;78;26297;-57
2022/05/22 08:20:49;;;;;;;4.55;1.30;;;;;;;;;;1798077;78;26819;-56
2022/05/22 08:23:18;;;;;;;1.50;1.40;;;;;;;;;;1789357;79;26316;-51
2022/05/22 08:25:46;;;;;;;1.57;1.47;;;;;;;;;;1789200;78;26736;-53
2022/05/22 08:28:13;;;;;;;2.05;1.50;;;;;;;;;;1785119;78;26331;-50
2022/05/22 08:30:40;;;;;;;1.40;1.40;;;;;;;;;;1794479;79;26246;-54
2022/05/22 08:33:08;;;;;;;1.32;1.30;;;;;;;;;;1792319;80;26265;-53
2022/05/22 08:35:37;;;;;;;1.70;1.47;;;;;;;;;;1782179;78;26374;-50
2022/05/22 08:38:05;;;;;;;1.80;1.60;;;;;;;;;;1784243;78;26913;-50
2022/05/22 08:40:36;;;;;;;2.30;1.60;;;;;;;;;;1794042;80;26258;-51
2022/05/22 08:43:05;;;;;;;2.60;1.60;;;;;;;;;;1763306;78;26360;-53
2022/05/22 08:45:40;;;;;;;3.95;1.90;;;;;;;;;;1793384;78;26773;-56
2022/05/22 08:48:09;;;;;;;1.70;1.60;;;;;;;;;;1790457;78;26843;-58
2022/05/22 08:50:37;;;;;;;3.22;1.52;;;;;;;;;;1785236;78;26807;-53
2022/05/22 08:53:09;;;;;;;1.90;1.55;;;;;;;;;;1786822;78;26371;-53
2022/05/22 09:01:12;;;;;;;3.90;1.35;;;;;;;;;;1792865;78;26372;-54
2022/05/22 09:03:41;;;;;;;2.37;1.50;;;;;;;;;;1793763;79;26371;-52
2022/05/22 09:06:09;;;;;;;1.65;1.55;;;;;;;;;;1778204;78;26324;-53
2022/05/22 09:08:38;;;;;;;2.77;1.60;;;;;;;;;;1795494;78;26238;-55
2022/05/22 09:11:08;;;;;;;1.52;1.52;;;;;;;;;;1790514;78;26282;-50
2022/05/22 09:13:37;;;;;;;2.52;1.42;;;;;;;;;;1791370;78;26774;-54
2022/05/22 09:16:22;;;;;;;3.75;1.52;;;;;;;;;;1788739;78;26349;-52
2022/05/22 09:19:00;;;;;;;2.70;1.57;;;;;;;;;;1791087;78;26233;-53
2022/05/22 09:21:34;;;;;;;1.77;1.60;;;;;;;;;;1781932;78;26323;-51
2022/05/22 09:24:06;;;;;;;1.70;1.60;;;;;;;;;;1788633;78;26270;-57
2022/05/22 09:26:41;;;;;;;1.50;1.40;;;;;;;;;;1792840;77;27421;-56
2022/05/22 09:29:26;;;;;;;3.22;1.50;;;;;;;;;;1790402;78;26286;-55
2022/05/22 09:31:55;;;;;;;1.30;1.30;;;;;;;;;;1794449;78;26360;-54
2022/05/22 09:34:23;;;;;;;1.80;1.40;;;;;;;;;;1786787;78;26288;-55
2022/05/22 09:37:07;;;;;;;1.40;1.30;;;;;;;;;;1793455;80;26266;-56
2022/05/22 09:39:36;;;;;;;1.20;1.20;;;;;;;;;;1786240;78;26372;-55
2022/05/22 09:42:05;;;;;;;1.35;1.30;;;;;;;;;;1790613;80;26306;-55
2022/05/22 09:44:43;;;;;;;1.60;1.42;;;;;;;;;;1791494;78;26352;-49
2022/05/22 09:47:15;;;;;;;1.40;1.30;;;;;;;;;;1787951;80;26737;-49
2022/05/22 09:49:49;;;;;;;2.33;1.35;;;;;;;;;;1793357;78;26901;-50
2022/05/22 09:52:21;;;;;;;2.55;1.40;;;;;;;;;;1784828;80;26303;-51
2022/05/22 09:55:06;;;;;;;1.20;1.20;;;;;;;;;;1788351;78;26310;-56
2022/05/22 09:57:37;;;;;;;2.77;1.40;;;;;;;;;;1779806;78;26634;-53
2022/05/22 10:00:13;;;;;;;1.20;1.20;;;;;;;;;;1788267;78;27176;-56
2022/05/22 10:02:45;;;;;;;1.25;1.25;;;;;;;;;;1785002;78;26863;-55
2022/05/22 10:05:29;;;;;;;1.52;1.30;;;;;;;;;;1783216;78;26770;-52
2022/05/22 10:07:58;;;;;;;1.30;1.22;;;;;;;;;;1788748;78;26298;-57
2022/05/22 10:10:29;;;;;;;1.20;1.20;;;;;;;;;;1784656;78;26337;-53
2022/05/22 10:12:58;;;;;;;1.20;1.20;;;;;;;;;;1787855;78;26278;-53
2022/05/22 10:15:30;;;;;;;4.50;1.30;;;;;;;;;;1792910;78;26336;-56
2022/05/22 10:17:59;;;;;;;1.40;1.27;;;;;;;;;;1801598;78;26273;-55
2022/05/22 10:20:44;;;;;;;1.27;1.22;;;;;;;;;;1794854;78;26367;-48
2022/05/22 10:23:13;;;;;;;8.40;2.20;;;;;;;;;;1796046;78;26294;-57
2022/05/22 10:25:48;;;;;;;1.55;1.45;;;;;;;;;;1790827;78;26352;-49
2022/05/22 10:28:20;;;;;;;1.60;1.40;;;;;;;;;;1793504;78;25792;-58
2022/05/22 10:30:52;;;;;;;1.35;1.27;;;;;;;;;;1791979;78;26321;-55
2022/05/22 10:33:29;;;;;;;1.90;1.50;;;;;;;;;;1792645;78;26273;-52
2022/05/22 10:35:58;;;;;;;2.83;1.30;;;;;;;;;;1788650;78;26313;-49
2022/05/22 10:38:27;;;;;;;1.85;1.10;;;;;;;;;;1784636;78;25905;-54
2022/05/22 10:43:42;;;;;;;1.40;1.30;;;;;;;;;;1793096;78;26765;-54
2022/05/22 10:46:09;;;;;;;2.52;1.20;;;;;;;;;;1788913;78;26262;-57
2022/05/22 10:48:38;;;;;;;1.02;1.00;;;;;;;;;;1786082;78;26297;-57
2022/05/22 10:51:09;;;;;;;1.42;1.10;;;;;;;;;;1789383;78;26318;-52
2022/05/22 10:53:38;;;;;;;2.10;1.50;;;;;;;;;;1796986;78;26419;-58
2022/05/22 10:56:16;;;;;;;1.42;1.37;;;;;;;;;;1792344;78;26275;-51
2022/05/22 10:58:54;;;;;;;5.65;1.57;;;;;;;;;;1798638;78;26317;-54
2022/05/22 11:01:23;;;;;;;1.30;1.20;;;;;;;;;;1765933;78;26317;-53
2022/05/22 11:03:52;;;;;;;2.83;1.42;;;;;;;;;;1797256;78;26325;-54
2022/05/22 11:06:20;;;;;;;2.75;1.20;;;;;;;;;;1785270;78;26332;-51
2022/05/22 11:08:49;;;;;;;1.98;1.32;;;;;;;;;;1795371;78;26333;-53
2022/05/22 11:11:18;;;;;;;1.12;1.12;;;;;;;;;;1788595;78;26828;-55
2022/05/22 11:13:46;;;;;;;1.22;1.22;;;;;;;;;;1793585;78;26709;-54
2022/05/22 11:16:15;;;;;;;2.00;1.37;;;;;;;;;;1791187;78;26305;-51
2022/05/22 11:18:42;;;;;;;2.90;1.90;;;;;;;;;;1791963;78;26284;-53
2022/05/22 11:21:11;;;;;;;1.85;1.37;;;;;;;;;;1792729;78;26757;-57
2022/05/22 11:23:40;;;;;;;4.70;1.75;;;;;;;;;;1790350;78;26727;-55
2022/05/22 11:26:25;;;;;;;2.45;1.77;;;;;;;;;;1791730;78;26664;-50
2022/05/22 11:29:00;;;;;;;2.15;1.50;;;;;;;;;;1797662;78;26402;-58
2022/05/22 11:31:35;;;;;;;3.77;1.50;;;;;;;;;;1790274;78;26683;-53
2022/05/22 11:34:19;;;;;;;5.92;2.30;;;;;;;;;;1786124;78;26368;-56
2022/05/22 11:36:57;;;;;;;2.90;1.60;;;;;;;;;;1785051;78;27036;-57
2022/05/22 11:39:26;;;;;;;3.83;1.30;;;;;;;;;;1790158;78;26330;-58
2022/05/22 11:41:55;;;;;;;6.35;1.32;;;;;;;;;;1788298;78;26273;-53
2022/05/22 11:44:30;;;;;;;3.40;1.40;;;;;;;;;;1789037;78;26420;-56
2022/05/22 11:47:14;;;;;;;4.08;1.40;;;;;;;;;;1791520;78;26868;-51
2022/05/22 11:49:46;;;;;;;1.75;1.25;;;;;;;;;;1791492;78;26305;-58
2022/05/22 11:55:18;;;;;;;2.83;1.35;;;;;;;;;;1795008;78;26342;-48
2022/05/22 11:57:50;;;;;;;2.85;1.40;;;;;;;;;;1792961;78;26339;-54
2022/05/22 12:00:22;;;;;;;1.22;1.10;;;;;;;;;;1793794;78;26982;-56
2022/05/22 12:02:50;;;;;;;4.67;1.40;;;;;;;;;;1788942;78;26967;-52
2022/05/22 12:05:25;;;;;;;2.80;1.30;;;;;;;;;;1788401;78;26859;-48
2022/05/22 12:07:59;;;;;;;1.98;1.40;;;;;;;;;;1790300;78;26372;-55
2022/05/22 12:10:34;;;;;;;1.77;1.30;;;;;;;;;;1785046;78;27280;-58
2022/05/22 12:13:08;;;;;;;3.42;1.47;;;;;;;;;;1790942;78;26665;-57
2022/05/22 12:15:46;;;;;;;2.30;1.30;;;;;;;;;;1787786;78;26309;-55
2022/05/22 12:18:32;;;;;;;1.40;1.30;;;;;;;;;;1791514;78;26630;-58
2022/05/22 12:21:01;;;;;;;1.35;1.25;;;;;;;;;;1789145;78;26426;-52
2022/05/22 12:23:30;;;;;;;2.22;1.35;;;;;;;;;;1798387;78;26859;-54
2022/05/22 12:26:01;;;;;;;1.50;1.40;;;;;;;;;;1790992;78;26325;-57
2022/05/22 12:28:37;;;;;;;1.67;1.40;;;;;;;;;;1798094;78;26388;-55
2022/05/22 12:31:06;;;;;;;1.30;1.20;;;;;;;;;;1807023;78;26334;-55
2022/05/22 12:33:35;;;;;;;1.20;1.20;;;;;;;;;;1786767;78;26823;-58
2022/05/22 12:36:04;;;;;;;2.20;1.45;;;;;;;;;;1799997;79;26356;-55
2022/05/22 12:38:31;;;;;;;1.25;1.25;;;;;;;;;;1797458;78;26368;-52
2022/05/22 12:41:02;;;;;;;2.95;1.10;;;;;;;;;;1799778;78;26335;-52
2022/05/22 12:43:31;;;;;;;2.08;1.20;;;;;;;;;;1796529;78;25731;-48
2022/05/22 12:46:03;;;;;;;1.20;1.07;;;;;;;;;;1798793;78;26312;-50
2022/05/22 12:48:34;;;;;;;1.10;1.10;;;;;;;;;;1787863;78;26367;-47
2022/05/22 12:51:09;;;;;;;1.10;1.00;;;;;;;;;;1804091;78;26714;-48
2022/05/22 12:53:38;;;;;;;2.50;1.17;;;;;;;;;;1803401;78;26772;-44
2022/05/22 12:56:26;;;;;;;1.43;1.30;;;;;;;;;;1780255;78;28326;-49
2022/05/22 12:58:55;;;;;;;3.75;1.17;;;;;;;;;;1796570;78;26725;-46
2022/05/22 13:01:24;;;;;;;1.37;1.27;;;;;;;;;;1801932;78;26337;-49
2022/05/22 13:03:53;;;;;;;1.98;1.30;;;;;;;;;;1799140;78;26306;-48
2022/05/22 13:06:21;;;;;;;2.12;1.12;;;;;;;;;;1798405;78;26820;-45
2022/05/22 13:08:50;;;;;;;1.40;1.30;;;;;;;;;;1798041;78;26738;-58
2022/05/22 13:11:22;;;;;;;1.20;1.10;;;;;;;;;;1795937;78;27439;-50
2022/05/22 13:13:52;;;;;;;2.15;1.20;;;;;;;;;;1798503;78;27398;-50
2022/05/22 13:16:30;;;;;;;2.45;1.20;;;;;;;;;;1797910;79;26261;-49
2022/05/22 13:18:57;;;;;;;4.65;1.32;;;;;;;;;;1799597;78;26374;-50
2022/05/22 13:21:31;;;;;;;1.30;1.20;;;;;;;;;;1799963;79;26755;-49
2022/05/22 13:24:03;;;;;;;1.35;1.30;;;;;;;;;;1799524;78;26329;-48
2022/05/22 13:26:32;;;;;;;1.75;1.17;;;;;;;;;;1794949;78;26395;-48
2022/05/22 13:29:01;;;;;;;1.12;1.10;;;;;;;;;;1796180;78;26388;-51
2022/05/22 13:31:30;;;;;;;1.50;1.40;;;;;;;;;;1793157;78;26360;-53
2022/05/22 13:34:17;;;;;;;1.30;1.20;;;;;;;;;;1790126;78;26262;-53
2022/05/22 13:36:49;;;;;;;2.83;1.25;;;;;;;;;;1794507;78;26761;-54
2022/05/22 13:39:20;;;;;;;1.60;1.27;;;;;;;;;;1792853;78;26267;-52
2022/05/22 13:41:52;;;;;;;6.20;1.20;;;;;;;;;;1785320;78;26290;-50
2022/05/22 13:44:37;;;;;;;1.95;1.10;;;;;;;;;;1792677;78;26774;-52
2022/05/22 13:47:23;;;;;;;5.78;1.22;;;;;;;;;;1789341;78;26367;-52
2022/05/22 13:52:34;;;;;;;6.42;1.20;;;;;;;;;;1797060;78;26289;-48
2022/05/22 13:52:37;;;;;;;4.65;1.15;;;;;;;;;;1796770;78;26655;-49
2022/05/22 13:55:08;;;;;;;3.65;1.32;;;;;;;;;;1792036;80;26313;-49
2022/05/22 13:57:38;;;;;;;4.37;1.50;;;;;;;;;;1792747;78;26302;-51
2022/05/22 14:00:21;;;;;;;12.28;1.32;;;;;;;;;;1791176;78;26380;-52
2022/05/22 14:02:52;;;;;;;8.45;1.52;;;;;;;;;;1790263;80;26411;-49
2022/05/22 14:05:20;;;;;;;3.20;1.05;;;;;;;;;;1791841;78;26892;-53
2022/05/22 14:07:49;;;;;;;5.87;1.40;;;;;;;;;;1794054;78;26322;-50
2022/05/22 14:10:17;;;;;;;5.30;1.30;;;;;;;;;;1790375;78;26383;-55
2022/05/22 14:12:46;;;;;;;7.83;1.30;;;;;;;;;;1795311;78;26309;-54
2022/05/22 14:15:15;;;;;;;7.62;1.90;;;;;;;;;;1792760;79;26355;-55
2022/05/22 14:17:42;;;;;;;4.40;1.40;;;;;;;;;;1800009;78;26285;-53
2022/05/22 14:20:15;;;;;;;4.58;1.20;;;;;;;;;;1797338;78;26305;-55
2022/05/22 14:22:44;;;;;;;7.70;1.30;;;;;;;;;;1795371;78;26313;-49
2022/05/22 14:25:12;;;;;;;4.40;1.30;;;;;;;;;;1793317;78;26333;-55
2022/05/22 14:27:46;;;;;;;3.40;1.37;;;;;;;;;;1794147;77;26265;-52
2022/05/22 14:30:15;;;;;;;4.42;1.30;;;;;;;;;;1797233;79;26950;-54
2022/05/22 14:32:44;;;;;;;3.12;1.20;;;;;;;;;;1800383;79;26815;-53
2022/05/22 14:35:13;;;;;;;6.90;1.30;;;;;;;;;;1799304;79;26472;-54
2022/05/22 14:37:42;;;;;;;5.10;1.40;;;;;;;;;;1798518;78;26827;-52
2022/05/22 14:40:17;;;;;;;3.20;1.25;;;;;;;;;;1800277;79;26316;-52
2022/05/22 14:42:46;;;;;;;2.72;1.15;;;;;;;;;;1798517;78;26329;-52
2022/05/22 14:45:15;;;;;;;1.85;1.12;;;;;;;;;;1798664;78;26364;-54
2022/05/22 14:47:42;;;;;;;3.65;1.10;;;;;;;;;;1793029;79;26278;-52
2022/05/22 14:50:11;;;;;;;2.77;1.30;;;;;;;;;;1799343;79;27351;-53
2022/05/22 14:52:40;;;;;;;2.87;1.10;;;;;;;;;;1799901;79;27333;-51
2022/05/22 14:55:08;;;;;;;3.60;1.20;;;;;;;;;;1799038;79;26222;-51
2022/05/22 14:57:37;;;;;;;2.67;1.10;;;;;;;;;;1799959;79;26351;-54
2022/05/22 15:00:06;;;;;;;4.85;1.10;;;;;;;;;;1794489;79;26746;-54
2022/05/22 15:02:35;;;;;;;2.37;1.20;;;;;;;;;;1798065;79;26872;-54
2022/05/22 15:05:06;;;;;;;3.33;1.20;;;;;;;;;;1798473;79;26328;-53
2022/05/22 15:07:33;;;;;;;1.05;1.05;;;;;;;;;;1799864;79;26317;-51
2022/05/22 15:10:04;;;;;;;2.75;1.07;;;;;;;;;;1797149;79;26349;-53
2022/05/22 15:12:36;;;;;;;4.17;1.12;;;;;;;;;;1802556;79;26744;-50
2022/05/22 15:15:04;;;;;;;1.15;1.15;;;;;;;;;;1796890;79;26670;-53